Time;durP1;ratioP1;P1;durP2;ratioP2;P2;SDS_P1;SDS_P2;PMS_P1;PMS_P2;Temp;Humidity;BMP_temperature;BMP_pressure;BME280_temperature;BME280_humidity;BME280_pressure;Samples;Min_cycle;Max_cycle;Signal;HPM_P1;HPM_P2
2021/07/16 00:00:20;;;;;;;1.52;1.10;;;;;;;12.89;100.00;95555.38;5030312;28;20099;-82
2021/07/16 00:03:05;;;;;;;2.65;1.08;;;;;;;12.95;100.00;95556.88;5035965;28;20465;-81
2021/07/16 00:05:31;;;;;;;2.45;1.20;;;;;;;12.93;100.00;95548.47;5045559;28;20042;-80
2021/07/16 00:07:56;;;;;;;1.15;1.05;;;;;;;12.85;100.00;95549.09;5046142;28;20485;-80
2021/07/16 00:10:22;;;;;;;1.00;0.90;;;;;;;12.85;100.00;95557.03;5032892;28;20049;-80
2021/07/16 00:12:49;;;;;;;1.20;0.93;;;;;;;13.02;100.00;95561.06;5036467;28;20041;-81
2021/07/16 00:15:16;;;;;;;1.30;0.90;;;;;;;13.05;100.00;95560.50;5044849;28;20041;-80
2021/07/16 00:17:42;;;;;;;3.63;1.27;;;;;;;12.90;100.00;95559.63;5038299;28;20167;-81
2021/07/16 00:20:10;;;;;;;2.42;1.23;;;;;;;12.95;100.00;95559.53;5030590;28;20045;-81
2021/07/16 00:22:36;;;;;;;1.88;0.98;;;;;;;12.98;100.00;95558.97;5033552;28;20047;-80
2021/07/16 00:25:04;;;;;;;2.28;1.30;;;;;;;12.94;100.00;95550.06;5031975;28;20116;-81
2021/07/16 00:27:30;;;;;;;3.70;1.20;;;;;;;12.94;100.00;95544.78;5054934;28;20086;-81
2021/07/16 00:29:55;;;;;;;2.10;1.10;;;;;;;13.04;100.00;95553.63;5035238;28;20042;-81
2021/07/16 00:32:21;;;;;;;1.38;1.05;;;;;;;12.88;100.00;95556.44;5041599;28;20093;-80
2021/07/16 00:34:46;;;;;;;1.80;1.30;;;;;;;12.82;100.00;95553.09;5055571;28;20036;-81
2021/07/16 00:37:12;;;;;;;2.65;1.08;;;;;;;12.86;100.00;95555.16;5037267;28;20037;-80
2021/07/16 00:39:38;;;;;;;4.90;1.23;;;;;;;12.91;100.00;95555.88;5032059;28;20133;-80
2021/07/16 00:42:04;;;;;;;1.65;0.93;;;;;;;12.93;100.00;95566.97;5029567;28;20048;-81
2021/07/16 00:44:32;;;;;;;3.65;1.20;;;;;;;12.87;100.00;95554.88;5030530;28;20045;-81
2021/07/16 00:46:58;;;;;;;3.13;1.10;;;;;;;13.01;100.00;95570.81;5030883;28;20164;-82
2021/07/16 00:49:23;;;;;;;1.98;1.13;;;;;;;13.02;100.00;95561.06;5043775;28;20064;-80
2021/07/16 00:51:49;;;;;;;1.50;1.02;;;;;;;12.97;100.00;95567.97;5031157;28;20088;-81
2021/07/16 00:54:14;;;;;;;1.20;1.10;;;;;;;13.05;100.00;95571.84;5035375;28;20071;-81
2021/07/16 00:56:40;;;;;;;2.13;1.08;;;;;;;12.96;100.00;95568.25;5045906;28;20040;-81
2021/07/16 00:59:06;;;;;;;0.95;0.90;;;;;;;13.00;100.00;95559.47;5029473;28;20044;-81
2021/07/16 01:01:31;;;;;;;3.53;1.17;;;;;;;12.92;100.00;95552.19;5030460;28;20046;-82
2021/07/16 01:03:57;;;;;;;1.83;1.27;;;;;;;13.10;100.00;95558.56;5031014;28;20056;-80
2021/07/16 01:06:23;;;;;;;2.55;1.10;;;;;;;13.00;100.00;95554.19;5034802;28;20531;-82
2021/07/16 01:08:48;;;;;;;2.42;1.20;;;;;;;13.03;100.00;95557.34;5062781;28;20044;-81
2021/07/16 01:11:14;;;;;;;4.03;1.40;;;;;;;12.99;100.00;95552.63;5047085;28;20539;-81
2021/07/16 01:13:40;;;;;;;0.95;0.90;;;;;;;12.97;100.00;95557.41;5055635;28;20071;-79
2021/07/16 01:16:06;;;;;;;2.60;1.13;;;;;;;12.94;100.00;95557.97;5038700;28;20048;-81
2021/07/16 01:18:32;;;;;;;1.27;1.08;;;;;;;12.96;100.00;95545.28;5033434;28;20042;-80
2021/07/16 01:20:58;;;;;;;2.28;1.17;;;;;;;13.09;100.00;95545.66;5035668;28;20037;-81
2021/07/16 01:23:27;;;;;;;1.33;0.95;;;;;;;13.06;100.00;95540.91;5047076;28;20045;-82
2021/07/16 01:25:54;;;;;;;3.38;1.38;;;;;;;13.04;100.00;95535.13;5037301;28;20072;-82
2021/07/16 01:28:20;;;;;;;5.03;1.13;;;;;;;13.04;100.00;95527.22;5053487;28;20041;-80
2021/07/16 01:30:47;;;;;;;1.50;1.40;;;;;;;13.08;100.00;95528.22;5056199;28;20037;-82
2021/07/16 01:33:13;;;;;;;1.98;1.33;;;;;;;13.07;100.00;95526.63;5046072;28;20119;-80
2021/07/16 01:35:39;;;;;;;1.40;1.20;;;;;;;12.97;100.00;95528.34;5059547;28;20064;-80
2021/07/16 01:38:05;;;;;;;2.50;1.13;;;;;;;12.92;100.00;95536.34;5040421;28;20038;-80
2021/07/16 01:40:36;;;;;;;2.38;1.02;;;;;;;12.87;100.00;95531.09;5041536;28;20045;-81
2021/07/16 01:43:03;;;;;;;2.95;1.45;;;;;;;12.79;100.00;95531.75;5033741;28;20491;-80
2021/07/16 01:45:33;;;;;;;2.58;1.10;;;;;;;12.77;100.00;95524.09;5032259;28;20466;-80
2021/07/16 01:48:02;;;;;;;1.60;1.20;;;;;;;12.71;100.00;95517.28;5043297;28;20037;-81
2021/07/16 01:50:29;;;;;;;1.42;1.25;;;;;;;12.74;100.00;95521.22;5033215;28;20057;-80
2021/07/16 01:52:55;;;;;;;3.33;1.40;;;;;;;12.75;100.00;95520.94;5048047;28;20112;-80
2021/07/16 01:55:22;;;;;;;1.45;1.20;;;;;;;12.72;100.00;95526.03;5039078;28;20064;-80
2021/07/16 01:57:52;;;;;;;2.65;1.35;;;;;;;12.56;100.00;95513.00;5045132;28;20037;-80
2021/07/16 02:00:22;;;;;;;3.30;1.20;;;;;;;12.62;100.00;95519.00;5051140;28;20041;-80
2021/07/16 02:02:49;;;;;;;2.42;1.10;;;;;;;12.65;100.00;95516.56;5054928;28;20051;-81
2021/07/16 02:05:15;;;;;;;1.02;0.98;;;;;;;12.59;100.00;95512.44;5061433;28;20071;-81
2021/07/16 02:07:41;;;;;;;1.85;1.30;;;;;;;12.59;100.00;95520.34;5068384;28;20036;-81
2021/07/16 02:10:07;;;;;;;3.75;1.27;;;;;;;12.68;100.00;95515.22;5048874;28;20037;-81
2021/07/16 02:12:33;;;;;;;2.13;1.20;;;;;;;12.61;100.00;95518.22;5033545;28;20052;-81
2021/07/16 02:14:58;;;;;;;1.20;1.02;;;;;;;12.63;100.00;95513.44;5045618;28;20049;-80
2021/07/16 02:17:24;;;;;;;1.70;1.10;;;;;;;12.50;100.00;95508.84;5071247;28;20051;-81
2021/07/16 02:19:49;;;;;;;1.15;1.00;;;;;;;12.51;100.00;95510.41;5054499;28;20494;-81
2021/07/16 02:22:14;;;;;;;2.05;1.10;;;;;;;12.45;100.00;95506.25;5060777;28;20449;-81
2021/07/16 02:24:40;;;;;;;2.67;0.98;;;;;;;12.50;100.00;95519.41;5063697;28;20532;-80
2021/07/16 02:27:08;;;;;;;4.35;1.30;;;;;;;12.54;100.00;95517.78;5048316;28;20046;-81
2021/07/16 02:29:34;;;;;;;4.50;2.25;;;;;;;12.53;100.00;95524.13;5032718;28;20049;-81
2021/07/16 02:32:01;;;;;;;1.42;1.02;;;;;;;12.55;100.00;95526.47;5031847;28;20057;-80
2021/07/16 02:34:30;;;;;;;2.33;1.33;;;;;;;12.46;100.00;95528.94;5032260;28;20048;-82
2021/07/16 02:36:56;;;;;;;1.98;0.98;;;;;;;12.32;100.00;95530.69;5031822;28;20045;-82
2021/07/16 02:39:22;;;;;;;3.03;1.25;;;;;;;12.22;100.00;95529.69;5037341;28;20040;-81
2021/07/16 02:41:47;;;;;;;2.70;0.98;;;;;;;12.23;100.00;95531.28;5053018;28;20047;-81
2021/07/16 02:44:13;;;;;;;1.00;0.90;;;;;;;12.22;100.00;95540.25;5056347;28;20047;-81
2021/07/16 02:46:38;;;;;;;1.98;0.90;;;;;;;12.25;100.00;95544.97;5045931;28;20041;-82
2021/07/16 02:49:04;;;;;;;1.33;1.20;;;;;;;12.29;100.00;95545.97;5044507;28;20092;-81
2021/07/16 02:51:29;;;;;;;2.35;1.00;;;;;;;12.25;100.00;95544.97;5038272;28;20079;-81
2021/07/16 02:53:55;;;;;;;1.33;1.13;;;;;;;12.27;100.00;95542.84;5046084;28;20041;-81
2021/07/16 02:56:23;;;;;;;1.20;1.10;;;;;;;12.15;100.00;95547.69;5060035;28;20044;-81
2021/07/16 02:58:48;;;;;;;1.45;1.10;;;;;;;12.22;100.00;95550.81;5061389;28;20037;-82
2021/07/16 03:01:14;;;;;;;2.88;1.20;;;;;;;12.35;100.00;95548.59;5049537;28;20556;-82
2021/07/16 03:03:40;;;;;;;3.28;1.30;;;;;;;12.54;100.00;95546.81;5035111;28;20061;-80
2021/07/16 03:06:06;;;;;;;3.50;1.27;;;;;;;12.60;100.00;95545.69;5052289;28;20064;-82
2021/07/16 03:08:31;;;;;;;1.30;1.20;;;;;;;12.74;100.00;95547.63;5033836;28;20611;-81
2021/07/16 03:10:57;;;;;;;1.23;1.13;;;;;;;12.66;100.00;95549.06;5045478;28;20048;-80
2021/07/16 03:13:22;;;;;;;1.08;0.90;;;;;;;12.77;100.00;95557.63;5048854;28;20055;-81
2021/07/16 03:15:48;;;;;;;1.23;1.10;;;;;;;12.77;100.00;95555.81;5052118;28;20082;-81
2021/07/16 03:18:13;;;;;;;4.28;1.40;;;;;;;12.68;100.00;95561.97;5070855;28;20040;-81
2021/07/16 03:20:44;;;;;;;2.47;1.30;;;;;;;12.64;100.00;95551.97;5042533;28;20067;-81
2021/07/16 03:23:11;;;;;;;2.55;1.30;;;;;;;12.82;100.00;95560.22;5033013;28;20084;-80
2021/07/16 03:25:37;;;;;;;1.30;1.20;;;;;;;12.80;100.00;95555.22;5049133;28;20116;-81
2021/07/16 03:28:04;;;;;;;3.65;1.15;;;;;;;12.83;100.00;95559.16;5053535;28;20395;-81
2021/07/16 03:30:31;;;;;;;1.70;1.20;;;;;;;12.78;100.00;95556.56;5048414;28;20094;-81
2021/07/16 03:32:58;;;;;;;1.85;1.30;;;;;;;12.75;100.00;95557.13;5050958;28;20083;-80
2021/07/16 03:35:24;;;;;;;1.80;1.20;;;;;;;12.69;100.00;95568.84;5050567;28;20115;-80
2021/07/16 03:37:52;;;;;;;1.88;1.38;;;;;;;12.62;100.00;95564.66;5056955;28;20052;-81
2021/07/16 03:40:22;;;;;;;2.33;1.30;;;;;;;12.60;100.00;95564.16;5041101;28;20037;-82
2021/07/16 03:42:49;;;;;;;1.90;1.27;;;;;;;12.60;100.00;95566.81;5032085;28;20415;-80
2021/07/16 03:45:15;;;;;;;1.23;1.17;;;;;;;12.53;100.00;95563.72;5059542;28;20037;-80
2021/07/16 03:47:42;;;;;;;3.75;1.55;;;;;;;12.52;100.00;95569.28;5060810;28;20171;-80
2021/07/16 03:50:09;;;;;;;2.28;1.40;;;;;;;12.57;100.00;95572.66;5048594;28;20450;-80
2021/07/16 03:52:35;;;;;;;3.13;1.25;;;;;;;12.54;100.00;95573.22;5042478;28;20061;-81
2021/07/16 03:55:05;;;;;;;2.08;1.33;;;;;;;12.45;100.00;95569.59;5053686;28;20041;-82
2021/07/16 03:57:31;;;;;;;3.03;1.40;;;;;;;12.46;100.00;95571.19;5031853;28;20045;-80
2021/07/16 03:59:57;;;;;;;3.35;1.35;;;;;;;12.48;100.00;95579.59;5045486;28;20045;-81
2021/07/16 04:02:22;;;;;;;2.35;1.20;;;;;;;12.63;100.00;95568.88;5030135;28;20053;-80
2021/07/16 04:04:51;;;;;;;1.40;1.30;;;;;;;12.53;100.00;95579.56;5031209;28;20143;-80
2021/07/16 04:07:18;;;;;;;1.48;1.38;;;;;;;12.71;100.00;95582.53;5058244;28;20677;-81
2021/07/16 04:09:43;;;;;;;2.53;1.40;;;;;;;12.68;100.00;95572.53;5042435;28;20037;-80
2021/07/16 04:12:14;;;;;;;2.42;1.38;;;;;;;12.82;100.00;95584.78;5029983;28;20053;-80
2021/07/16 04:14:52;;;;;;;1.70;1.33;;;;;;;12.72;100.00;95584.88;5029334;28;20573;-81
2021/07/16 04:17:27;;;;;;;2.25;1.30;;;;;;;12.89;100.00;95589.72;5036303;28;20050;-81
2021/07/16 04:19:53;;;;;;;1.90;1.30;;;;;;;12.80;100.00;95596.69;5041212;28;20041;-81
2021/07/16 04:22:24;;;;;;;4.03;1.33;;;;;;;12.67;100.00;95597.34;5034973;28;20092;-80
2021/07/16 04:24:51;;;;;;;1.83;1.30;;;;;;;12.70;100.00;95597.59;5038375;28;20051;-80
2021/07/16 04:27:16;;;;;;;2.22;1.35;;;;;;;12.76;100.00;95596.47;5050202;28;20037;-81
2021/07/16 04:29:43;;;;;;;1.95;1.33;;;;;;;12.93;100.00;95590.75;5037932;28;20049;-80
2021/07/16 04:32:12;;;;;;;5.13;1.40;;;;;;;13.06;100.00;95599.03;5040438;28;20048;-80
2021/07/16 04:34:39;;;;;;;1.88;1.23;;;;;;;13.17;100.00;95601.28;5033089;28;20041;-80
2021/07/16 04:37:06;;;;;;;3.35;1.30;;;;;;;13.20;100.00;95593.84;5049869;28;20041;-80
2021/07/16 04:39:32;;;;;;;2.15;1.42;;;;;;;13.18;100.00;95596.78;5049741;28;20036;-81
2021/07/16 04:41:58;;;;;;;2.35;1.30;;;;;;;13.16;100.00;95609.50;5057131;28;20048;-80
2021/07/16 04:44:23;;;;;;;3.40;1.45;;;;;;;13.18;100.00;95613.41;5053232;28;20040;-81
2021/07/16 04:46:50;;;;;;;2.60;1.60;;;;;;;13.24;100.00;95616.78;5038882;28;20048;-80
2021/07/16 04:49:16;;;;;;;1.50;1.27;;;;;;;13.20;99.25;95618.41;5051886;28;20040;-80
2021/07/16 04:51:42;;;;;;;2.15;1.48;;;;;;;13.15;99.20;95603.41;5034185;28;20136;-80
2021/07/16 04:54:08;;;;;;;4.13;1.42;;;;;;;13.07;100.00;95608.53;5036813;28;20470;-80
2021/07/16 04:56:34;;;;;;;1.98;1.52;;;;;;;13.06;100.00;95604.31;5038957;28;20041;-81
2021/07/16 04:59:00;;;;;;;1.85;1.20;;;;;;;13.00;100.00;95607.03;5033826;28;20053;-80
2021/07/16 05:01:26;;;;;;;1.88;1.40;;;;;;;12.97;100.00;95602.31;5047509;28;20044;-81
2021/07/16 05:03:54;;;;;;;1.70;1.20;;;;;;;13.04;100.00;95606.47;5056088;28;20495;-80
2021/07/16 05:06:20;;;;;;;3.03;1.38;;;;;;;13.04;100.00;95601.19;5059446;28;20248;-81
2021/07/16 05:08:46;;;;;;;1.65;1.30;;;;;;;13.05;100.00;95608.03;5033158;28;20052;-80
2021/07/16 05:11:13;;;;;;;2.08;1.30;;;;;;;13.20;100.00;95599.91;5031585;28;20427;-80
2021/07/16 05:13:39;;;;;;;5.35;1.60;;;;;;;13.50;100.00;95619.13;5033035;28;20449;-81
2021/07/16 05:16:07;;;;;;;2.00;1.30;;;;;;;13.58;100.00;95621.16;5040317;28;20040;-81
2021/07/16 05:18:33;;;;;;;4.45;1.52;;;;;;;13.70;99.71;95623.34;5035639;28;20044;-80
2021/07/16 05:20:59;;;;;;;1.83;1.17;;;;;;;13.69;98.82;95627.88;5058714;28;20044;-81
2021/07/16 05:23:26;;;;;;;6.85;1.55;;;;;;;13.68;100.00;95631.56;5045792;28;20042;-81
2021/07/16 05:25:51;;;;;;;1.92;1.30;;;;;;;13.63;100.00;95623.72;5053824;28;20045;-81
2021/07/16 05:28:17;;;;;;;2.67;1.10;;;;;;;13.59;100.00;95627.22;5052727;28;20048;-80
2021/07/16 05:30:43;;;;;;;3.75;1.27;;;;;;;13.36;100.00;95624.34;5050724;28;20041;-80
2021/07/16 05:33:09;;;;;;;2.17;1.40;;;;;;;13.18;100.00;95616.06;5036609;28;20068;-80
2021/07/16 05:35:35;;;;;;;3.55;1.20;;;;;;;13.29;100.00;95618.59;5035823;28;20033;-80
2021/07/16 05:38:00;;;;;;;2.45;1.40;;;;;;;13.43;100.00;95613.41;5035042;28;20446;-80
2021/07/16 05:40:26;;;;;;;2.58;1.20;;;;;;;13.83;99.24;95611.28;5039829;28;20032;-80
2021/07/16 05:42:52;;;;;;;2.17;1.30;;;;;;;13.94;98.16;95617.22;5055313;28;20041;-80
2021/07/16 05:45:18;;;;;;;2.78;1.20;;;;;;;13.97;98.45;95617.41;5057857;28;20044;-80
2021/07/16 05:47:44;;;;;;;3.50;1.40;;;;;;;14.01;98.22;95618.41;5045616;28;20037;-80
2021/07/16 05:50:09;;;;;;;2.88;1.40;;;;;;;14.00;98.18;95616.06;5051028;28;20098;-78
2021/07/16 05:52:35;;;;;;;4.03;1.40;;;;;;;13.99;98.45;95615.28;5045684;28;20037;-80
2021/07/16 05:55:01;;;;;;;4.38;1.40;;;;;;;14.10;96.78;95609.81;5035277;28;20633;-80
2021/07/16 05:57:27;;;;;;;2.92;1.48;;;;;;;14.03;97.89;95621.53;5043706;28;20094;-80
2021/07/16 05:59:53;;;;;;;2.60;1.50;;;;;;;14.18;97.33;95617.09;5044877;28;20049;-80
2021/07/16 06:02:18;;;;;;;2.45;1.30;;;;;;;14.34;95.98;95621.06;5059435;28;20048;-80
2021/07/16 06:04:44;;;;;;;2.72;1.52;;;;;;;14.23;96.70;95624.19;5044134;28;20428;-81
2021/07/16 06:07:09;;;;;;;3.25;1.60;;;;;;;14.58;93.75;95625.41;5050783;28;20052;-80
2021/07/16 06:09:35;;;;;;;3.75;1.60;;;;;;;14.47;95.58;95629.34;5030396;28;20033;-80
2021/07/16 06:12:01;;;;;;;7.47;1.90;;;;;;;14.41;95.04;95639.22;5031816;28;20041;-80
2021/07/16 06:14:29;;;;;;;4.00;1.80;;;;;;;14.42;95.82;95632.06;5038904;28;20091;-80
2021/07/16 06:16:56;;;;;;;2.63;1.63;;;;;;;14.79;93.67;95633.06;5053842;28;20053;-80
2021/07/16 06:19:21;;;;;;;3.00;1.90;;;;;;;14.92;93.33;95634.16;5043984;28;20099;-81
2021/07/16 06:21:47;;;;;;;4.47;1.60;;;;;;;14.81;94.78;95633.53;5049424;28;20465;-80
2021/07/16 06:24:12;;;;;;;5.45;1.77;;;;;;;14.58;94.40;95640.53;5053896;28;20555;-80
2021/07/16 06:26:38;;;;;;;3.28;1.90;;;;;;;14.70;93.16;95644.31;5068073;28;20041;-80
2021/07/16 06:29:07;;;;;;;3.45;2.28;;;;;;;14.86;93.90;95646.69;5037608;28;20087;-80
2021/07/16 06:31:33;;;;;;;3.70;2.15;;;;;;;15.03;92.79;95649.56;5034035;28;20498;-80
2021/07/16 06:33:59;;;;;;;4.35;2.70;;;;;;;14.98;93.02;95646.97;5044158;28;20092;-80
2021/07/16 06:36:25;;;;;;;4.53;2.50;;;;;;;14.85;93.32;95650.41;5051467;28;20542;-79
2021/07/16 06:38:50;;;;;;;3.60;2.10;;;;;;;14.94;95.28;95648.69;5050096;28;20029;-80
2021/07/16 06:41:16;;;;;;;4.38;2.60;;;;;;;14.94;94.35;95663.78;5048498;28;20075;-80
2021/07/16 06:43:42;;;;;;;5.10;2.40;;;;;;;14.95;94.29;95660.06;5034678;28;20045;-79
2021/07/16 06:46:08;;;;;;;5.05;2.63;;;;;;;15.16;92.83;95660.47;5055614;28;20083;-80
2021/07/16 06:48:35;;;;;;;4.07;2.50;;;;;;;15.13;92.28;95661.03;5059908;28;20517;-79
2021/07/16 06:51:00;;;;;;;5.63;2.85;;;;;;;15.17;94.15;95657.50;5038171;28;20649;-81
2021/07/16 06:53:26;;;;;;;3.90;2.80;;;;;;;15.20;93.40;95661.41;5030708;28;20080;-79
2021/07/16 06:55:52;;;;;;;5.55;2.90;;;;;;;15.28;93.75;95663.38;5053480;28;20064;-80
2021/07/16 06:58:17;;;;;;;5.78;3.00;;;;;;;15.63;89.73;95663.78;5038826;28;20038;-81
2021/07/16 07:00:44;;;;;;;6.53;2.78;;;;;;;15.76;89.36;95675.44;5035937;28;20045;-80
2021/07/16 07:03:10;;;;;;;5.35;3.00;;;;;;;15.57;89.45;95680.84;5047030;28;20528;-81
2021/07/16 07:05:36;;;;;;;6.30;3.00;;;;;;;15.40;91.55;95682.25;5035690;28;20048;-81
2021/07/16 07:08:02;;;;;;;5.10;2.80;;;;;;;15.38;90.90;95689.69;5045561;28;20411;-80
2021/07/16 07:10:28;;;;;;;4.75;3.08;;;;;;;15.51;92.53;95693.44;5040747;28;20410;-79
2021/07/16 07:12:53;;;;;;;7.88;3.42;;;;;;;15.51;91.73;95695.31;5032388;28;20041;-78
2021/07/16 07:15:19;;;;;;;5.70;2.85;;;;;;;16.16;86.76;95688.13;5049748;28;20041;-76
2021/07/16 07:17:46;;;;;;;4.30;2.90;;;;;;;15.95;87.37;95696.56;5037163;28;20040;-80
2021/07/16 07:20:12;;;;;;;6.95;2.80;;;;;;;16.10;88.75;95700.72;5039716;28;20044;-78
2021/07/16 07:22:39;;;;;;;5.40;3.28;;;;;;;16.02;88.18;95707.53;5042033;28;20049;-82
2021/07/16 07:25:05;;;;;;;6.10;2.75;;;;;;;16.03;89.92;95703.00;5036493;28;20082;-82
2021/07/16 07:27:32;;;;;;;5.22;2.78;;;;;;;16.34;86.38;95703.09;5036474;28;20091;-81
2021/07/16 07:29:58;;;;;;;5.03;2.80;;;;;;;16.33;87.33;95711.38;5044103;28;20499;-80
2021/07/16 07:32:23;;;;;;;4.22;2.67;;;;;;;16.54;87.22;95703.72;5050618;28;20045;-80
2021/07/16 07:34:49;;;;;;;5.82;3.53;;;;;;;16.79;86.63;95713.75;5043710;28;20099;-81
2021/07/16 07:37:15;;;;;;;7.18;3.10;;;;;;;16.56;86.59;95704.19;5038673;28;20722;-82
2021/07/16 07:39:41;;;;;;;10.10;3.30;;;;;;;16.41;87.59;95716.75;5042591;28;20044;-82
2021/07/16 07:42:06;;;;;;;4.45;2.58;;;;;;;16.42;88.62;95709.56;5036278;28;20454;-82
2021/07/16 07:44:32;;;;;;;5.57;2.60;;;;;;;16.58;85.08;95712.66;5035808;28;20045;-82
2021/07/16 07:46:57;;;;;;;5.93;2.60;;;;;;;16.40;87.98;95712.53;5034896;28;20095;-82
2021/07/16 07:49:24;;;;;;;7.45;2.30;;;;;;;16.48;88.51;95715.53;5031546;28;20053;-81
2021/07/16 07:51:49;;;;;;;3.92;2.20;;;;;;;16.63;86.74;95715.19;5038738;28;20049;-81
2021/07/16 07:54:15;;;;;;;4.38;2.20;;;;;;;16.82;85.05;95722.94;5034472;28;20038;-79
2021/07/16 07:56:40;;;;;;;3.58;2.45;;;;;;;16.75;84.89;95718.09;5045915;28;20371;-80
2021/07/16 07:59:07;;;;;;;3.65;2.35;;;;;;;16.61;85.60;95722.69;5046221;28;20116;-81
2021/07/16 08:01:34;;;;;;;5.20;2.53;;;;;;;16.87;82.75;95730.03;5043225;28;20045;-82
2021/07/16 08:04:00;;;;;;;3.95;2.17;;;;;;;16.66;85.10;95735.81;5049039;28;20080;-81
2021/07/16 08:06:26;;;;;;;4.47;2.17;;;;;;;16.70;84.98;95734.13;5047782;28;20048;-80
2021/07/16 08:08:52;;;;;;;3.83;2.25;;;;;;;16.60;86.83;95737.03;5033513;28;20034;-81
2021/07/16 08:11:17;;;;;;;2.42;1.83;;;;;;;16.69;85.68;95735.22;5045000;28;20041;-78
2021/07/16 08:13:43;;;;;;;3.03;2.33;;;;;;;16.59;84.50;95741.59;5045930;28;20040;-78
2021/07/16 08:16:09;;;;;;;7.35;2.25;;;;;;;16.59;84.22;95735.47;5046319;28;20041;-77
2021/07/16 08:18:34;;;;;;;3.30;2.20;;;;;;;16.58;85.09;95733.91;5040714;28;20034;-78
2021/07/16 08:21:00;;;;;;;4.72;2.10;;;;;;;16.74;84.14;95743.06;5047733;28;20051;-77
2021/07/16 08:23:26;;;;;;;4.03;2.47;;;;;;;16.76;85.28;95740.88;5050616;28;20047;-78
2021/07/16 08:25:51;;;;;;;5.70;2.35;;;;;;;16.91;86.21;95746.94;5052922;28;20164;-80
2021/07/16 08:28:17;;;;;;;3.72;2.55;;;;;;;16.85;85.49;95732.19;5045270;28;20044;-81
2021/07/16 08:30:42;;;;;;;4.75;2.30;;;;;;;16.95;84.01;95737.28;5046303;28;20041;-79
2021/07/16 08:33:08;;;;;;;5.28;2.67;;;;;;;16.96;84.26;95738.88;5048384;28;20037;-80
2021/07/16 08:35:34;;;;;;;6.00;2.47;;;;;;;17.00;83.47;95731.84;5045107;28;20037;-79
2021/07/16 08:38:00;;;;;;;6.70;2.50;;;;;;;17.07;81.04;95737.53;5049799;28;20049;-79
2021/07/16 08:40:25;;;;;;;4.22;2.45;;;;;;;17.11;82.21;95730.50;5045959;28;20116;-84
2021/07/16 08:42:51;;;;;;;3.55;2.40;;;;;;;17.17;81.93;95735.66;5047923;28;20475;-81
2021/07/16 08:45:16;;;;;;;4.50;2.38;;;;;;;17.24;80.68;95738.69;5044033;28;20037;-81
2021/07/16 08:47:42;;;;;;;3.92;2.50;;;;;;;17.31;81.49;95733.69;5055455;28;20068;-82
2021/07/16 08:50:12;;;;;;;4.95;2.80;;;;;;;17.36;82.48;95730.91;5053255;28;20048;-81
2021/07/16 08:52:39;;;;;;;5.22;2.30;;;;;;;17.57;78.43;95730.34;5036753;28;20072;-80
2021/07/16 08:55:05;;;;;;;4.72;2.50;;;;;;;17.53;80.10;95732.06;5049546;28;20455;-79
2021/07/16 08:57:31;;;;;;;4.80;2.30;;;;;;;17.57;82.60;95741.00;5050164;28;20049;-78
2021/07/16 08:59:57;;;;;;;3.78;2.60;;;;;;;17.96;78.97;95748.19;5045208;28;20053;-79
2021/07/16 09:02:27;;;;;;;4.40;2.00;;;;;;;18.21;76.83;95737.09;5045291;28;20049;-77
2021/07/16 09:05:01;;;;;;;6.07;2.30;;;;;;;17.90;75.11;95743.28;5039695;28;20049;-79
2021/07/16 09:07:27;;;;;;;3.30;2.00;;;;;;;17.82;78.03;95745.63;5044841;28;20042;-79
2021/07/16 09:10:12;;;;;;;3.42;2.00;;;;;;;17.69;77.83;95754.50;5051002;28;20041;-79
2021/07/16 09:12:39;;;;;;;3.80;2.00;;;;;;;18.04;74.45;95751.94;5042365;28;20046;-78
2021/07/16 09:15:15;;;;;;;3.10;1.95;;;;;;;17.94;78.76;95754.91;5032629;28;20118;-78
2021/07/16 09:17:46;;;;;;;2.33;1.75;;;;;;;18.05;81.67;95750.84;5036499;28;20040;-79
2021/07/16 09:20:25;;;;;;;7.22;2.40;;;;;;;17.66;81.09;95749.81;5047175;28;20052;-78
2021/07/16 09:23:16;;;;;;;3.38;1.90;;;;;;;17.92;80.90;95746.47;5038613;28;20392;-78
2021/07/16 09:25:43;;;;;;;7.47;1.70;;;;;;;18.11;77.95;95749.59;5045205;28;20041;-78
2021/07/16 09:28:23;;;;;;;4.03;2.00;;;;;;;18.12;80.08;95747.75;5045016;28;20038;-81
2021/07/16 09:30:49;;;;;;;2.72;1.98;;;;;;;18.20;79.89;95743.50;5042795;28;20634;-80
2021/07/16 09:33:16;;;;;;;2.63;1.88;;;;;;;18.23;76.88;95745.56;5037994;28;20041;-79
2021/07/16 09:35:43;;;;;;;2.53;1.98;;;;;;;18.33;78.93;95735.38;5066408;28;20040;-78
2021/07/16 09:38:14;;;;;;;7.25;1.90;;;;;;;18.89;72.04;95736.59;5055752;28;20041;-77
2021/07/16 09:40:50;;;;;;;3.83;1.98;;;;;;;19.16;71.05;95738.88;5047785;28;20093;-78
2021/07/16 09:43:20;;;;;;;3.28;1.85;;;;;;;19.03;72.84;95734.53;5033210;28;20045;-78
2021/07/16 09:45:59;;;;;;;2.80;1.70;;;;;;;19.29;70.37;95731.00;5044239;28;20148;-78
2021/07/16 09:48:27;;;;;;;2.53;1.67;;;;;;;19.27;72.46;95733.22;5043494;28;20598;-78
2021/07/16 09:51:12;;;;;;;2.75;1.70;;;;;;;19.05;69.71;95721.69;5045519;28;20048;-79
2021/07/16 09:53:52;;;;;;;2.40;1.80;;;;;;;18.53;73.37;95723.31;5034455;28;20112;-79
2021/07/16 09:56:23;;;;;;;2.58;1.73;;;;;;;18.91;72.52;95726.44;5034204;28;20129;-78
2021/07/16 09:58:59;;;;;;;2.47;1.55;;;;;;;18.96;71.04;95726.25;5042189;28;20037;-77
2021/07/16 10:01:28;;;;;;;2.83;1.50;;;;;;;19.28;71.44;95740.09;5042908;28;20509;-79
2021/07/16 10:03:54;;;;;;;2.88;1.52;;;;;;;18.89;66.86;95723.28;5052590;28;20037;-78
2021/07/16 10:06:22;;;;;;;2.10;1.67;;;;;;;18.93;70.45;95729.53;5042681;28;20091;-78
2021/07/16 10:08:48;;;;;;;4.07;1.58;;;;;;;18.77;71.84;95716.69;5042892;28;20041;-78
2021/07/16 10:11:19;;;;;;;3.60;1.73;;;;;;;19.01;71.18;95721.53;5037312;28;20391;-79
2021/07/16 10:13:45;;;;;;;1.70;1.50;;;;;;;19.63;72.03;95719.41;5047408;28;20044;-79
2021/07/16 10:16:13;;;;;;;3.50;1.63;;;;;;;19.73;69.80;95720.91;5053446;28;20037;-77
2021/07/16 10:18:40;;;;;;;2.80;1.70;;;;;;;19.29;70.03;95731.00;5057665;28;20040;-78
2021/07/16 10:21:06;;;;;;;2.60;1.48;;;;;;;19.27;69.91;95727.88;5041580;28;20091;-79
2021/07/16 10:23:33;;;;;;;1.90;1.38;;;;;;;19.17;69.39;95727.13;5043415;28;20052;-78
2021/07/16 10:26:00;;;;;;;2.58;1.33;;;;;;;19.30;64.28;95717.34;5034872;28;20041;-79
2021/07/16 10:28:35;;;;;;;2.58;1.40;;;;;;;19.10;68.83;95721.50;5036402;28;20045;-77
2021/07/16 10:31:02;;;;;;;1.63;1.30;;;;;;;19.37;65.07;95722.97;5054899;28;20040;-77
2021/07/16 10:33:38;;;;;;;1.70;1.40;;;;;;;19.86;65.64;95716.47;5041289;28;20029;-78
2021/07/16 10:36:10;;;;;;;3.90;1.40;;;;;;;20.36;66.28;95717.53;5039291;28;20060;-78
2021/07/16 10:38:35;;;;;;;1.92;1.50;;;;;;;20.54;63.96;95710.16;5041551;28;20082;-78
2021/07/16 10:41:01;;;;;;;2.08;1.52;;;;;;;20.77;63.19;95711.38;5042921;28;20109;-79
2021/07/16 10:43:30;;;;;;;5.68;1.70;;;;;;;20.72;59.93;95713.47;5049514;28;20421;-80
2021/07/16 10:46:00;;;;;;;2.65;1.88;;;;;;;20.64;67.54;95711.63;5036996;28;20045;-81
2021/07/16 10:48:37;;;;;;;3.08;1.48;;;;;;;20.77;62.44;95695.34;5043743;28;20526;-81
2021/07/16 10:51:03;;;;;;;5.00;1.63;;;;;;;21.56;59.66;95699.78;5045701;28;20094;-79
2021/07/16 10:53:29;;;;;;;2.55;1.40;;;;;;;21.41;59.89;95697.78;5045390;28;20037;-79
2021/07/16 10:55:57;;;;;;;1.80;1.50;;;;;;;21.67;58.18;95696.69;5048215;28;20037;-80
2021/07/16 10:58:28;;;;;;;1.70;1.58;;;;;;;22.09;59.60;95699.06;5054442;28;20052;-80
2021/07/16 11:00:55;;;;;;;1.70;1.42;;;;;;;22.48;57.67;95696.72;5053142;28;20069;-81
2021/07/16 11:03:39;;;;;;;1.50;1.35;;;;;;;22.54;56.17;95698.06;5042362;28;20084;-82
2021/07/16 11:06:06;;;;;;;1.85;1.40;;;;;;;22.75;51.95;95695.16;5033725;28;20041;-82
2021/07/16 11:08:35;;;;;;;2.78;1.48;;;;;;;23.14;54.05;95694.63;5034502;28;20042;-83
2021/07/16 11:11:09;;;;;;;2.58;1.92;;;;;;;24.24;48.13;95689.44;5037368;28;20392;-80
2021/07/16 11:13:57;;;;;;;3.42;2.10;;;;;;;24.51;51.07;95692.25;5045679;28;20094;-80
2021/07/16 11:16:37;;;;;;;2.65;1.73;;;;;;;23.76;51.33;95691.44;5050575;28;20048;-80
2021/07/16 11:19:05;;;;;;;2.08;1.75;;;;;;;23.98;50.64;95696.19;5052982;28;20063;-81
2021/07/16 11:21:38;;;;;;;3.28;1.60;;;;;;;24.09;49.08;95699.09;5033012;28;20052;-81
2021/07/16 11:24:04;;;;;;;3.17;1.70;;;;;;;23.73;49.06;95692.16;5045415;28;20491;-78
2021/07/16 11:26:31;;;;;;;1.75;1.20;;;;;;;23.48;50.30;95687.00;5033312;28;20060;-79
2021/07/16 11:28:57;;;;;;;1.77;1.58;;;;;;;24.23;49.58;95685.19;5047638;28;20061;-81